sensor_id;sensor_type;location;lat;lon;timestamp;P1;durP1;ratioP1;P2;durP2;ratioP2
78402;SDS011;67687;43.508;1.504;2024-02-14T00:01:55;6.13;;;2.90;;
78402;SDS011;67687;43.508;1.504;2024-02-14T00:04:24;8.43;;;3.50;;
78402;SDS011;67687;43.508;1.504;2024-02-14T00:06:50;6.90;;;3.10;;
78402;SDS011;67687;43.508;1.504;2024-02-14T00:09:18;8.32;;;3.47;;
78402;SDS011;67687;43.508;1.504;2024-02-14T00:11:45;7.80;;;4.53;;
78402;SDS011;67687;43.508;1.504;2024-02-14T00:14:11;5.80;;;3.25;;
78402;SDS011;67687;43.508;1.504;2024-02-14T00:16:38;7.63;;;3.23;;
78402;SDS011;67687;43.508;1.504;2024-02-14T00:19:05;7.28;;;3.40;;
78402;SDS011;67687;43.508;1.504;2024-02-14T00:21:33;6.75;;;3.40;;
78402;SDS011;67687;43.508;1.504;2024-02-14T00:24:01;6.90;;;2.90;;
78402;SDS011;67687;43.508;1.504;2024-02-14T00:26:28;6.88;;;2.70;;
78402;SDS011;67687;43.508;1.504;2024-02-14T00:28:54;5.67;;;2.40;;
78402;SDS011;67687;43.508;1.504;2024-02-14T00:31:21;6.72;;;2.78;;
78402;SDS011;67687;43.508;1.504;2024-02-14T00:33:47;6.45;;;2.90;;
78402;SDS011;67687;43.508;1.504;2024-02-14T00:36:14;6.75;;;3.25;;
78402;SDS011;67687;43.508;1.504;2024-02-14T00:38:42;6.95;;;3.53;;
78402;SDS011;67687;43.508;1.504;2024-02-14T00:41:10;8.27;;;3.73;;
78402;SDS011;67687;43.508;1.504;2024-02-14T00:43:37;10.00;;;4.38;;
78402;SDS011;67687;43.508;1.504;2024-02-14T00:46:03;7.32;;;3.60;;
78402;SDS011;67687;43.508;1.504;2024-02-14T00:48:31;9.30;;;3.83;;
78402;SDS011;67687;43.508;1.504;2024-02-14T00:50:58;7.50;;;3.28;;
78402;SDS011;67687;43.508;1.504;2024-02-14T00:53:24;7.27;;;3.13;;
78402;SDS011;67687;43.508;1.504;2024-02-14T00:55:52;7.50;;;3.08;;
78402;SDS011;67687;43.508;1.504;2024-02-14T00:58:19;6.32;;;3.08;;
78402;SDS011;67687;43.508;1.504;2024-02-14T01:00:46;7.00;;;3.33;;
78402;SDS011;67687;43.508;1.504;2024-02-14T01:03:12;6.93;;;3.22;;
78402;SDS011;67687;43.508;1.504;2024-02-14T01:05:40;6.53;;;3.70;;
78402;SDS011;67687;43.508;1.504;2024-02-14T01:08:07;6.55;;;3.42;;
78402;SDS011;67687;43.508;1.504;2024-02-14T01:10:34;6.18;;;3.50;;
78402;SDS011;67687;43.508;1.504;2024-02-14T01:13:02;6.45;;;3.22;;
78402;SDS011;67687;43.508;1.504;2024-02-14T01:15:29;8.07;;;3.28;;
78402;SDS011;67687;43.508;1.504;2024-02-14T01:17:55;6.07;;;3.10;;
78402;SDS011;67687;43.508;1.504;2024-02-14T01:20:22;6.05;;;3.20;;
78402;SDS011;67687;43.508;1.504;2024-02-14T01:22:48;7.20;;;3.50;;
78402;SDS011;67687;43.508;1.504;2024-02-14T01:25:15;7.75;;;3.40;;
78402;SDS011;67687;43.508;1.504;2024-02-14T01:27:42;9.48;;;3.67;;
78402;SDS011;67687;43.508;1.504;2024-02-14T01:30:12;8.03;;;3.60;;
78402;SDS011;67687;43.508;1.504;2024-02-14T01:32:39;8.02;;;3.88;;
78402;SDS011;67687;43.508;1.504;2024-02-14T01:35:06;7.18;;;3.92;;
78402;SDS011;67687;43.508;1.504;2024-02-14T01:37:34;8.43;;;4.28;;
78402;SDS011;67687;43.508;1.504;2024-02-14T01:40:01;8.13;;;4.45;;
78402;SDS011;67687;43.508;1.504;2024-02-14T01:42:28;8.17;;;4.50;;
78402;SDS011;67687;43.508;1.504;2024-02-14T01:44:53;8.23;;;4.40;;
78402;SDS011;67687;43.508;1.504;2024-02-14T01:47:22;8.52;;;4.38;;
78402;SDS011;67687;43.508;1.504;2024-02-14T01:49:48;9.00;;;4.47;;
78402;SDS011;67687;43.508;1.504;2024-02-14T01:52:15;8.55;;;4.30;;
78402;SDS011;67687;43.508;1.504;2024-02-14T01:54:41;10.25;;;4.35;;
78402;SDS011;67687;43.508;1.504;2024-02-14T01:57:08;7.38;;;4.10;;
78402;SDS011;67687;43.508;1.504;2024-02-14T01:59:36;7.95;;;4.18;;
78402;SDS011;67687;43.508;1.504;2024-02-14T02:02:03;7.77;;;3.93;;
78402;SDS011;67687;43.508;1.504;2024-02-14T02:04:33;8.75;;;4.88;;
78402;SDS011;67687;43.508;1.504;2024-02-14T02:07:00;10.82;;;4.50;;
78402;SDS011;67687;43.508;1.504;2024-02-14T02:09:26;11.18;;;4.90;;
78402;SDS011;67687;43.508;1.504;2024-02-14T02:11:53;9.18;;;4.55;;
78402;SDS011;67687;43.508;1.504;2024-02-14T02:14:21;8.37;;;4.97;;
78402;SDS011;67687;43.508;1.504;2024-02-14T02:16:48;8.38;;;4.70;;
78402;SDS011;67687;43.508;1.504;2024-02-14T02:19:14;9.65;;;4.55;;
78402;SDS011;67687;43.508;1.504;2024-02-14T02:21:43;8.25;;;4.32;;
78402;SDS011;67687;43.508;1.504;2024-02-14T02:24:12;8.68;;;4.45;;
78402;SDS011;67687;43.508;1.504;2024-02-14T02:26:39;8.60;;;4.30;;
78402;SDS011;67687;43.508;1.504;2024-02-14T02:29:05;7.72;;;4.10;;
78402;SDS011;67687;43.508;1.504;2024-02-14T02:31:32;8.88;;;3.70;;
78402;SDS011;67687;43.508;1.504;2024-02-14T02:33:58;6.95;;;3.88;;
78402;SDS011;67687;43.508;1.504;2024-02-14T02:36:25;8.55;;;4.53;;
78402;SDS011;67687;43.508;1.504;2024-02-14T02:38:55;10.40;;;4.57;;
78402;SDS011;67687;43.508;1.504;2024-02-14T02:41:23;8.23;;;4.47;;
78402;SDS011;67687;43.508;1.504;2024-02-14T02:43:49;7.47;;;4.25;;
78402;SDS011;67687;43.508;1.504;2024-02-14T02:46:16;7.40;;;4.18;;
78402;SDS011;67687;43.508;1.504;2024-02-14T02:48:42;8.45;;;4.28;;
78402;SDS011;67687;43.508;1.504;2024-02-14T02:51:09;7.00;;;4.10;;
78402;SDS011;67687;43.508;1.504;2024-02-14T02:53:36;7.53;;;4.18;;
78402;SDS011;67687;43.508;1.504;2024-02-14T02:56:03;6.80;;;3.60;;
78402;SDS011;67687;43.508;1.504;2024-02-14T02:58:31;6.97;;;3.80;;
78402;SDS011;67687;43.508;1.504;2024-02-14T03:00:57;10.00;;;4.20;;
78402;SDS011;67687;43.508;1.504;2024-02-14T03:03:24;8.90;;;4.40;;
78402;SDS011;67687;43.508;1.504;2024-02-14T03:05:53;9.15;;;4.43;;
78402;SDS011;67687;43.508;1.504;2024-02-14T03:08:20;8.60;;;4.63;;
78402;SDS011;67687;43.508;1.504;2024-02-14T03:10:46;9.68;;;4.47;;
78402;SDS011;67687;43.508;1.504;2024-02-14T03:13:14;7.93;;;4.60;;
78402;SDS011;67687;43.508;1.504;2024-02-14T03:15:44;9.50;;;4.93;;
78402;SDS011;67687;43.508;1.504;2024-02-14T03:18:11;7.95;;;4.57;;
78402;SDS011;67687;43.508;1.504;2024-02-14T03:20:38;10.00;;;4.63;;
78402;SDS011;67687;43.508;1.504;2024-02-14T03:23:04;7.88;;;4.53;;
78402;SDS011;67687;43.508;1.504;2024-02-14T03:25:31;7.95;;;4.35;;
78402;SDS011;67687;43.508;1.504;2024-02-14T03:27:58;9.70;;;4.67;;
78402;SDS011;67687;43.508;1.504;2024-02-14T03:30:25;10.07;;;5.13;;
78402;SDS011;67687;43.508;1.504;2024-02-14T03:32:56;8.75;;;4.78;;
78402;SDS011;67687;43.508;1.504;2024-02-14T03:35:22;8.40;;;4.72;;
78402;SDS011;67687;43.508;1.504;2024-02-14T03:37:49;7.55;;;4.47;;
78402;SDS011;67687;43.508;1.504;2024-02-14T03:40:17;8.17;;;4.50;;
78402;SDS011;67687;43.508;1.504;2024-02-14T03:42:45;9.25;;;5.03;;
78402;SDS011;67687;43.508;1.504;2024-02-14T03:45:12;8.80;;;4.65;;
78402;SDS011;67687;43.508;1.504;2024-02-14T03:47:39;8.30;;;4.75;;
78402;SDS011;67687;43.508;1.504;2024-02-14T03:50:08;8.10;;;4.53;;
78402;SDS011;67687;43.508;1.504;2024-02-14T03:52:35;9.83;;;4.53;;
78402;SDS011;67687;43.508;1.504;2024-02-14T03:55:01;9.98;;;4.85;;
78402;SDS011;67687;43.508;1.504;2024-02-14T03:57:28;8.73;;;4.68;;
78402;SDS011;67687;43.508;1.504;2024-02-14T03:59:55;8.73;;;5.10;;
78402;SDS011;67687;43.508;1.504;2024-02-14T04:02:22;7.68;;;4.45;;
78402;SDS011;67687;43.508;1.504;2024-02-14T04:04:49;9.70;;;4.80;;
78402;SDS011;67687;43.508;1.504;2024-02-14T04:07:17;6.82;;;3.95;;
78402;SDS011;67687;43.508;1.504;2024-02-14T04:09:44;6.93;;;3.78;;
78402;SDS011;67687;43.508;1.504;2024-02-14T04:12:10;6.40;;;3.70;;
78402;SDS011;67687;43.508;1.504;2024-02-14T04:14:37;7.35;;;3.60;;
78402;SDS011;67687;43.508;1.504;2024-02-14T04:17:04;6.00;;;3.20;;
78402;SDS011;67687;43.508;1.504;2024-02-14T04:19:31;6.15;;;3.33;;
78402;SDS011;67687;43.508;1.504;2024-02-14T04:21:57;5.75;;;3.17;;
78402;SDS011;67687;43.508;1.504;2024-02-14T04:24:25;6.57;;;4.10;;
78402;SDS011;67687;43.508;1.504;2024-02-14T04:26:52;7.28;;;3.78;;
78402;SDS011;67687;43.508;1.504;2024-02-14T04:29:20;8.30;;;4.10;;
78402;SDS011;67687;43.508;1.504;2024-02-14T04:31:47;7.15;;;3.75;;
78402;SDS011;67687;43.508;1.504;2024-02-14T04:34:14;6.72;;;3.38;;
78402;SDS011;67687;43.508;1.504;2024-02-14T04:36:40;8.50;;;3.70;;
78402;SDS011;67687;43.508;1.504;2024-02-14T04:39:07;6.88;;;3.63;;
78402;SDS011;67687;43.508;1.504;2024-02-14T04:41:35;7.20;;;3.93;;
78402;SDS011;67687;43.508;1.504;2024-02-14T04:44:04;6.07;;;3.35;;
78402;SDS011;67687;43.508;1.504;2024-02-14T04:46:31;8.88;;;3.63;;
78402;SDS011;67687;43.508;1.504;2024-02-14T04:48:59;6.05;;;3.78;;
78402;SDS011;67687;43.508;1.504;2024-02-14T04:51:28;7.75;;;3.83;;
78402;SDS011;67687;43.508;1.504;2024-02-14T04:53:54;6.80;;;3.70;;
78402;SDS011;67687;43.508;1.504;2024-02-14T04:56:23;6.47;;;4.00;;
78402;SDS011;67687;43.508;1.504;2024-02-14T04:58:51;5.72;;;3.08;;
78402;SDS011;67687;43.508;1.504;2024-02-14T05:01:18;6.63;;;3.10;;
78402;SDS011;67687;43.508;1.504;2024-02-14T05:03:44;6.60;;;3.53;;
78402;SDS011;67687;43.508;1.504;2024-02-14T05:06:11;6.33;;;3.40;;
78402;SDS011;67687;43.508;1.504;2024-02-14T05:08:37;7.22;;;3.33;;
78402;SDS011;67687;43.508;1.504;2024-02-14T05:11:04;7.97;;;2.92;;
78402;SDS011;67687;43.508;1.504;2024-02-14T05:13:30;5.63;;;2.80;;
78402;SDS011;67687;43.508;1.504;2024-02-14T05:15:58;7.00;;;2.58;;
78402;SDS011;67687;43.508;1.504;2024-02-14T05:18:28;6.27;;;2.83;;
78402;SDS011;67687;43.508;1.504;2024-02-14T05:20:54;6.72;;;3.25;;
78402;SDS011;67687;43.508;1.504;2024-02-14T05:23:21;6.32;;;3.20;;
78402;SDS011;67687;43.508;1.504;2024-02-14T05:25:48;7.82;;;3.70;;
78402;SDS011;67687;43.508;1.504;2024-02-14T05:28:15;6.78;;;3.50;;
78402;SDS011;67687;43.508;1.504;2024-02-14T05:30:43;7.23;;;3.00;;
78402;SDS011;67687;43.508;1.504;2024-02-14T05:33:12;4.97;;;2.83;;
78402;SDS011;67687;43.508;1.504;2024-02-14T05:35:38;7.43;;;3.22;;
78402;SDS011;67687;43.508;1.504;2024-02-14T05:38:05;6.22;;;3.35;;
78402;SDS011;67687;43.508;1.504;2024-02-14T05:40:32;5.65;;;3.08;;
78402;SDS011;67687;43.508;1.504;2024-02-14T05:42:59;6.97;;;2.83;;
78402;SDS011;67687;43.508;1.504;2024-02-14T05:45:26;7.25;;;3.10;;
78402;SDS011;67687;43.508;1.504;2024-02-14T05:47:52;6.60;;;3.47;;
78402;SDS011;67687;43.508;1.504;2024-02-14T05:50:21;6.38;;;3.38;;
78402;SDS011;67687;43.508;1.504;2024-02-14T05:52:47;4.47;;;2.63;;
78402;SDS011;67687;43.508;1.504;2024-02-14T05:55:14;7.13;;;2.60;;
78402;SDS011;67687;43.508;1.504;2024-02-14T05:57:40;5.45;;;3.30;;
78402;SDS011;67687;43.508;1.504;2024-02-14T06:00:07;7.35;;;3.03;;
78402;SDS011;67687;43.508;1.504;2024-02-14T06:02:35;5.07;;;2.83;;
78402;SDS011;67687;43.508;1.504;2024-02-14T06:05:02;6.05;;;3.10;;
78402;SDS011;67687;43.508;1.504;2024-02-14T06:07:29;6.80;;;3.10;;
78402;SDS011;67687;43.508;1.504;2024-02-14T06:09:56;7.72;;;3.53;;
78402;SDS011;67687;43.508;1.504;2024-02-14T06:12:23;6.80;;;3.40;;
78402;SDS011;67687;43.508;1.504;2024-02-14T06:14:49;6.93;;;3.05;;
78402;SDS011;67687;43.508;1.504;2024-02-14T06:17:16;7.03;;;3.50;;
78402;SDS011;67687;43.508;1.504;2024-02-14T06:19:43;6.73;;;3.20;;
78402;SDS011;67687;43.508;1.504;2024-02-14T06:22:09;5.85;;;3.15;;
78402;SDS011;67687;43.508;1.504;2024-02-14T06:24:37;7.47;;;3.60;;
78402;SDS011;67687;43.508;1.504;2024-02-14T06:27:04;6.68;;;3.65;;
78402;SDS011;67687;43.508;1.504;2024-02-14T06:29:31;6.10;;;3.40;;
78402;SDS011;67687;43.508;1.504;2024-02-14T06:31:57;6.13;;;3.00;;
78402;SDS011;67687;43.508;1.504;2024-02-14T06:34:24;5.53;;;2.75;;
78402;SDS011;67687;43.508;1.504;2024-02-14T06:36:51;5.97;;;2.83;;
78402;SDS011;67687;43.508;1.504;2024-02-14T06:39:17;6.78;;;3.45;;
78402;SDS011;67687;43.508;1.504;2024-02-14T06:41:47;9.13;;;4.60;;
78402;SDS011;67687;43.508;1.504;2024-02-14T06:44:13;21.50;;;10.47;;
78402;SDS011;67687;43.508;1.504;2024-02-14T06:46:40;12.07;;;4.95;;
78402;SDS011;67687;43.508;1.504;2024-02-14T06:49:07;14.50;;;6.80;;
78402;SDS011;67687;43.508;1.504;2024-02-14T06:51:34;12.70;;;5.65;;
78402;SDS011;67687;43.508;1.504;2024-02-14T06:54:00;83.25;;;22.85;;
78402;SDS011;67687;43.508;1.504;2024-02-14T06:56:27;30.47;;;9.77;;
78402;SDS011;67687;43.508;1.504;2024-02-14T06:58:57;54.53;;;21.55;;
78402;SDS011;67687;43.508;1.504;2024-02-14T07:01:25;12.82;;;6.90;;
78402;SDS011;67687;43.508;1.504;2024-02-14T07:03:52;8.95;;;3.97;;
78402;SDS011;67687;43.508;1.504;2024-02-14T07:06:18;8.73;;;4.40;;
78402;SDS011;67687;43.508;1.504;2024-02-14T07:08:45;7.63;;;3.80;;
78402;SDS011;67687;43.508;1.504;2024-02-14T07:11:12;7.45;;;3.70;;
78402;SDS011;67687;43.508;1.504;2024-02-14T07:13:40;6.82;;;3.33;;
78402;SDS011;67687;43.508;1.504;2024-02-14T07:16:08;7.97;;;3.88;;
78402;SDS011;67687;43.508;1.504;2024-02-14T07:18:35;6.57;;;3.42;;
78402;SDS011;67687;43.508;1.504;2024-02-14T07:21:01;8.63;;;4.30;;
78402;SDS011;67687;43.508;1.504;2024-02-14T07:23:31;7.05;;;3.95;;
78402;SDS011;67687;43.508;1.504;2024-02-14T07:25:57;6.82;;;3.47;;
78402;SDS011;67687;43.508;1.504;2024-02-14T07:28:24;7.53;;;4.22;;
78402;SDS011;67687;43.508;1.504;2024-02-14T07:30:50;11.95;;;4.45;;
78402;SDS011;67687;43.508;1.504;2024-02-14T07:33:18;7.90;;;4.20;;
78402;SDS011;67687;43.508;1.504;2024-02-14T07:35:45;9.60;;;4.07;;
78402;SDS011;67687;43.508;1.504;2024-02-14T07:38:12;10.02;;;4.57;;
78402;SDS011;67687;43.508;1.504;2024-02-14T07:40:38;9.38;;;5.63;;
78402;SDS011;67687;43.508;1.504;2024-02-14T07:43:05;10.68;;;5.80;;
78402;SDS011;67687;43.508;1.504;2024-02-14T07:45:32;13.50;;;7.07;;
78402;SDS011;67687;43.508;1.504;2024-02-14T07:47:58;14.57;;;6.53;;
78402;SDS011;67687;43.508;1.504;2024-02-14T07:50:27;11.60;;;6.38;;
78402;SDS011;67687;43.508;1.504;2024-02-14T07:52:53;11.43;;;6.20;;
78402;SDS011;67687;43.508;1.504;2024-02-14T07:55:20;11.30;;;6.25;;
78402;SDS011;67687;43.508;1.504;2024-02-14T07:57:47;14.70;;;6.90;;
78402;SDS011;67687;43.508;1.504;2024-02-14T08:00:14;10.90;;;6.55;;
78402;SDS011;67687;43.508;1.504;2024-02-14T08:02:47;13.00;;;7.57;;
78402;SDS011;67687;43.508;1.504;2024-02-14T08:05:14;13.55;;;6.85;;
78402;SDS011;67687;43.508;1.504;2024-02-14T08:07:42;14.15;;;7.30;;
78402;SDS011;67687;43.508;1.504;2024-02-14T08:10:09;14.00;;;6.37;;
78402;SDS011;67687;43.508;1.504;2024-02-14T08:12:35;12.60;;;6.72;;
78402;SDS011;67687;43.508;1.504;2024-02-14T08:15:02;11.02;;;6.32;;
78402;SDS011;67687;43.508;1.504;2024-02-14T08:17:31;13.07;;;6.63;;
78402;SDS011;67687;43.508;1.504;2024-02-14T08:19:58;14.00;;;7.72;;
78402;SDS011;67687;43.508;1.504;2024-02-14T08:22:25;12.47;;;7.20;;
78402;SDS011;67687;43.508;1.504;2024-02-14T08:24:53;13.55;;;6.97;;
78402;SDS011;67687;43.508;1.504;2024-02-14T08:27:21;11.32;;;7.63;;
78402;SDS011;67687;43.508;1.504;2024-02-14T08:29:47;13.73;;;8.18;;
78402;SDS011;67687;43.508;1.504;2024-02-14T08:32:14;15.23;;;10.75;;
78402;SDS011;67687;43.508;1.504;2024-02-14T08:34:40;13.77;;;8.43;;
78402;SDS011;67687;43.508;1.504;2024-02-14T08:37:07;18.00;;;9.82;;
78402;SDS011;67687;43.508;1.504;2024-02-14T08:39:35;13.65;;;10.00;;
78402;SDS011;67687;43.508;1.504;2024-02-14T08:42:04;12.45;;;9.32;;
78402;SDS011;67687;43.508;1.504;2024-02-14T08:44:32;14.93;;;9.45;;
78402;SDS011;67687;43.508;1.504;2024-02-14T08:46:59;12.90;;;8.37;;
78402;SDS011;67687;43.508;1.504;2024-02-14T08:49:26;12.10;;;7.45;;
78402;SDS011;67687;43.508;1.504;2024-02-14T08:51:52;10.20;;;6.75;;
78402;SDS011;67687;43.508;1.504;2024-02-14T08:54:19;10.10;;;6.18;;
78402;SDS011;67687;43.508;1.504;2024-02-14T08:56:46;8.88;;;6.20;;
78402;SDS011;67687;43.508;1.504;2024-02-14T08:59:15;9.73;;;6.10;;
78402;SDS011;67687;43.508;1.504;2024-02-14T09:01:41;9.07;;;5.95;;
78402;SDS011;67687;43.508;1.504;2024-02-14T09:04:08;9.93;;;6.15;;
78402;SDS011;67687;43.508;1.504;2024-02-14T09:06:34;8.20;;;5.60;;
78402;SDS011;67687;43.508;1.504;2024-02-14T09:09:02;8.55;;;5.85;;
78402;SDS011;67687;43.508;1.504;2024-02-14T09:11:28;7.93;;;5.40;;
78402;SDS011;67687;43.508;1.504;2024-02-14T09:13:56;8.10;;;4.90;;
78402;SDS011;67687;43.508;1.504;2024-02-14T09:16:31;9.63;;;4.82;;
78402;SDS011;67687;43.508;1.504;2024-02-14T09:18:58;8.95;;;5.47;;
78402;SDS011;67687;43.508;1.504;2024-02-14T09:21:26;9.32;;;5.40;;
78402;SDS011;67687;43.508;1.504;2024-02-14T09:23:53;9.53;;;5.63;;
78402;SDS011;67687;43.508;1.504;2024-02-14T09:26:20;8.77;;;5.13;;
78402;SDS011;67687;43.508;1.504;2024-02-14T09:28:50;6.85;;;4.78;;
78402;SDS011;67687;43.508;1.504;2024-02-14T09:31:19;9.20;;;5.18;;
78402;SDS011;67687;43.508;1.504;2024-02-14T09:33:48;6.75;;;4.72;;
78402;SDS011;67687;43.508;1.504;2024-02-14T09:36:15;6.83;;;4.53;;
78402;SDS011;67687;43.508;1.504;2024-02-14T09:38:41;9.02;;;4.78;;
78402;SDS011;67687;43.508;1.504;2024-02-14T09:41:11;6.90;;;5.00;;
78402;SDS011;67687;43.508;1.504;2024-02-14T09:43:40;8.80;;;5.60;;
78402;SDS011;67687;43.508;1.504;2024-02-14T09:46:09;7.22;;;4.55;;
78402;SDS011;67687;43.508;1.504;2024-02-14T09:48:37;7.00;;;4.60;;
78402;SDS011;67687;43.508;1.504;2024-02-14T09:51:06;10.90;;;4.70;;
78402;SDS011;67687;43.508;1.504;2024-02-14T09:53:35;7.72;;;4.90;;
78402;SDS011;67687;43.508;1.504;2024-02-14T09:56:02;6.97;;;4.53;;
78402;SDS011;67687;43.508;1.504;2024-02-14T09:58:29;7.25;;;4.88;;
78402;SDS011;67687;43.508;1.504;2024-02-14T10:00:58;8.90;;;4.80;;
78402;SDS011;67687;43.508;1.504;2024-02-14T10:03:24;10.25;;;4.93;;
78402;SDS011;67687;43.508;1.504;2024-02-14T10:05:51;8.63;;;4.85;;
78402;SDS011;67687;43.508;1.504;2024-02-14T10:08:20;8.77;;;4.80;;
78402;SDS011;67687;43.508;1.504;2024-02-14T10:10:46;7.93;;;5.10;;
78402;SDS011;67687;43.508;1.504;2024-02-14T10:13:14;8.77;;;4.67;;
78402;SDS011;67687;43.508;1.504;2024-02-14T10:15:41;8.48;;;5.18;;
78402;SDS011;67687;43.508;1.504;2024-02-14T10:18:08;7.47;;;4.72;;
78402;SDS011;67687;43.508;1.504;2024-02-14T10:20:37;7.32;;;4.30;;
78402;SDS011;67687;43.508;1.504;2024-02-14T10:23:10;7.07;;;4.53;;
78402;SDS011;67687;43.508;1.504;2024-02-14T10:25:38;9.23;;;4.07;;
78402;SDS011;67687;43.508;1.504;2024-02-14T10:28:05;6.32;;;3.72;;
78402;SDS011;67687;43.508;1.504;2024-02-14T10:30:35;7.80;;;4.43;;
78402;SDS011;67687;43.508;1.504;2024-02-14T10:33:03;8.35;;;4.57;;
78402;SDS011;67687;43.508;1.504;2024-02-14T10:35:32;7.22;;;4.57;;
78402;SDS011;67687;43.508;1.504;2024-02-14T10:37:58;6.70;;;4.10;;
78402;SDS011;67687;43.508;1.504;2024-02-14T10:40:29;6.90;;;4.30;;
78402;SDS011;67687;43.508;1.504;2024-02-14T10:43:00;9.10;;;4.50;;
78402;SDS011;67687;43.508;1.504;2024-02-14T10:45:27;8.15;;;4.60;;
78402;SDS011;67687;43.508;1.504;2024-02-14T10:47:56;7.55;;;4.80;;
78402;SDS011;67687;43.508;1.504;2024-02-14T10:50:24;7.40;;;4.23;;
78402;SDS011;67687;43.508;1.504;2024-02-14T10:52:51;7.55;;;4.80;;
78402;SDS011;67687;43.508;1.504;2024-02-14T10:55:19;8.13;;;4.20;;
78402;SDS011;67687;43.508;1.504;2024-02-14T10:57:48;6.07;;;3.90;;
78402;SDS011;67687;43.508;1.504;2024-02-14T11:00:17;7.90;;;3.90;;
78402;SDS011;67687;43.508;1.504;2024-02-14T11:02:43;5.50;;;2.97;;
78402;SDS011;67687;43.508;1.504;2024-02-14T11:05:12;5.75;;;3.20;;
78402;SDS011;67687;43.508;1.504;2024-02-14T11:07:43;4.70;;;2.63;;
78402;SDS011;67687;43.508;1.504;2024-02-14T11:10:12;4.72;;;2.25;;
78402;SDS011;67687;43.508;1.504;2024-02-14T11:12:40;4.85;;;2.38;;
78402;SDS011;67687;43.508;1.504;2024-02-14T11:15:10;5.10;;;2.30;;
78402;SDS011;67687;43.508;1.504;2024-02-14T11:17:38;4.55;;;2.17;;
78402;SDS011;67687;43.508;1.504;2024-02-14T11:20:15;4.35;;;1.65;;
78402;SDS011;67687;43.508;1.504;2024-02-14T11:22:50;3.83;;;1.80;;
78402;SDS011;67687;43.508;1.504;2024-02-14T11:25:16;4.00;;;1.63;;
78402;SDS011;67687;43.508;1.504;2024-02-14T11:27:44;5.03;;;2.23;;
78402;SDS011;67687;43.508;1.504;2024-02-14T11:30:11;4.05;;;1.90;;
78402;SDS011;67687;43.508;1.504;2024-02-14T11:32:41;3.80;;;1.70;;
78402;SDS011;67687;43.508;1.504;2024-02-14T11:35:10;4.30;;;1.90;;
78402;SDS011;67687;43.508;1.504;2024-02-14T11:37:37;5.63;;;2.20;;
78402;SDS011;67687;43.508;1.504;2024-02-14T11:40:04;6.17;;;1.83;;
78402;SDS011;67687;43.508;1.504;2024-02-14T11:42:32;3.83;;;1.80;;
78402;SDS011;67687;43.508;1.504;2024-02-14T11:44:58;3.30;;;1.30;;
78402;SDS011;67687;43.508;1.504;2024-02-14T11:47:26;4.25;;;1.67;;
78402;SDS011;67687;43.508;1.504;2024-02-14T11:49:54;5.55;;;1.60;;
78402;SDS011;67687;43.508;1.504;2024-02-14T11:52:20;5.37;;;1.40;;
78402;SDS011;67687;43.508;1.504;2024-02-14T11:54:47;3.83;;;1.60;;
78402;SDS011;67687;43.508;1.504;2024-02-14T11:57:16;3.22;;;1.38;;
78402;SDS011;67687;43.508;1.504;2024-02-14T11:59:43;4.38;;;1.60;;
78402;SDS011;67687;43.508;1.504;2024-02-14T12:02:11;5.60;;;1.75;;
78402;SDS011;67687;43.508;1.504;2024-02-14T12:04:38;5.27;;;1.67;;
78402;SDS011;67687;43.508;1.504;2024-02-14T12:07:06;4.28;;;1.60;;
78402;SDS011;67687;43.508;1.504;2024-02-14T12:09:33;4.68;;;1.65;;
78402;SDS011;67687;43.508;1.504;2024-02-14T12:12:00;4.13;;;1.83;;
78402;SDS011;67687;43.508;1.504;2024-02-14T12:14:27;4.18;;;1.77;;
78402;SDS011;67687;43.508;1.504;2024-02-14T12:16:56;5.07;;;1.60;;
78402;SDS011;67687;43.508;1.504;2024-02-14T12:19:22;4.53;;;1.40;;
78402;SDS011;67687;43.508;1.504;2024-02-14T12:21:49;3.97;;;1.42;;
78402;SDS011;67687;43.508;1.504;2024-02-14T12:24:17;4.60;;;1.60;;
78402;SDS011;67687;43.508;1.504;2024-02-14T12:26:44;3.88;;;1.52;;
78402;SDS011;67687;43.508;1.504;2024-02-14T12:29:11;4.00;;;1.70;;
78402;SDS011;67687;43.508;1.504;2024-02-14T12:31:39;5.22;;;1.67;;
78402;SDS011;67687;43.508;1.504;2024-02-14T12:34:05;5.03;;;1.90;;
78402;SDS011;67687;43.508;1.504;2024-02-14T12:36:34;3.67;;;1.48;;
78402;SDS011;67687;43.508;1.504;2024-02-14T12:39:00;4.70;;;1.80;;
78402;SDS011;67687;43.508;1.504;2024-02-14T12:41:30;4.27;;;1.60;;
78402;SDS011;67687;43.508;1.504;2024-02-14T12:43:57;5.05;;;1.77;;
78402;SDS011;67687;43.508;1.504;2024-02-14T12:46:25;4.03;;;1.70;;
78402;SDS011;67687;43.508;1.504;2024-02-14T12:48:51;3.95;;;1.80;;
78402;SDS011;67687;43.508;1.504;2024-02-14T12:51:18;5.65;;;1.67;;
78402;SDS011;67687;43.508;1.504;2024-02-14T12:53:45;4.57;;;1.50;;
78402;SDS011;67687;43.508;1.504;2024-02-14T12:56:11;4.88;;;1.65;;
78402;SDS011;67687;43.508;1.504;2024-02-14T12:58:39;5.35;;;1.52;;
78402;SDS011;67687;43.508;1.504;2024-02-14T13:01:06;3.60;;;1.10;;
78402;SDS011;67687;43.508;1.504;2024-02-14T13:03:36;3.88;;;1.02;;
78402;SDS011;67687;43.508;1.504;2024-02-14T13:06:03;4.00;;;0.90;;
78402;SDS011;67687;43.508;1.504;2024-02-14T13:08:30;4.28;;;1.17;;
78402;SDS011;67687;43.508;1.504;2024-02-14T13:10:57;9.38;;;1.40;;
78402;SDS011;67687;43.508;1.504;2024-02-14T13:13:23;5.20;;;1.10;;
78402;SDS011;67687;43.508;1.504;2024-02-14T13:15:52;4.05;;;0.90;;
78402;SDS011;67687;43.508;1.504;2024-02-14T13:18:18;3.27;;;1.03;;
78402;SDS011;67687;43.508;1.504;2024-02-14T13:20:45;3.00;;;0.93;;
78402;SDS011;67687;43.508;1.504;2024-02-14T13:23:12;4.25;;;1.20;;
78402;SDS011;67687;43.508;1.504;2024-02-14T13:25:39;3.42;;;1.10;;
78402;SDS011;67687;43.508;1.504;2024-02-14T13:28:06;3.75;;;1.10;;
78402;SDS011;67687;43.508;1.504;2024-02-14T13:30:32;4.87;;;1.30;;
78402;SDS011;67687;43.508;1.504;2024-02-14T13:33:00;5.30;;;0.77;;
78402;SDS011;67687;43.508;1.504;2024-02-14T13:35:28;3.13;;;1.00;;
78402;SDS011;67687;43.508;1.504;2024-02-14T13:37:55;4.40;;;1.00;;
78402;SDS011;67687;43.508;1.504;2024-02-14T13:40:23;2.97;;;0.95;;
78402;SDS011;67687;43.508;1.504;2024-02-14T13:42:49;4.17;;;1.00;;
78402;SDS011;67687;43.508;1.504;2024-02-14T13:45:16;3.63;;;0.80;;
78402;SDS011;67687;43.508;1.504;2024-02-14T13:47:43;3.35;;;0.82;;
78402;SDS011;67687;43.508;1.504;2024-02-14T13:50:11;2.90;;;0.70;;
78402;SDS011;67687;43.508;1.504;2024-02-14T13:52:38;3.20;;;0.90;;
78402;SDS011;67687;43.508;1.504;2024-02-14T13:55:05;24.93;;;2.10;;
78402;SDS011;67687;43.508;1.504;2024-02-14T13:57:33;3.88;;;1.13;;
78402;SDS011;67687;43.508;1.504;2024-02-14T14:00:00;3.10;;;1.00;;
78402;SDS011;67687;43.508;1.504;2024-02-14T14:02:26;3.05;;;0.70;;
78402;SDS011;67687;43.508;1.504;2024-02-14T14:04:53;3.25;;;1.17;;
78402;SDS011;67687;43.508;1.504;2024-02-14T14:07:22;3.97;;;1.33;;
78402;SDS011;67687;43.508;1.504;2024-02-14T14:09:49;2.97;;;1.10;;
78402;SDS011;67687;43.508;1.504;2024-02-14T14:12:15;3.78;;;1.02;;
78402;SDS011;67687;43.508;1.504;2024-02-14T14:14:42;3.63;;;1.10;;
78402;SDS011;67687;43.508;1.504;2024-02-14T14:17:08;3.88;;;1.02;;
78402;SDS011;67687;43.508;1.504;2024-02-14T14:19:35;3.20;;;1.20;;
78402;SDS011;67687;43.508;1.504;2024-02-14T14:22:01;4.25;;;1.20;;
78402;SDS011;67687;43.508;1.504;2024-02-14T14:24:29;4.32;;;1.42;;
78402;SDS011;67687;43.508;1.504;2024-02-14T14:26:57;4.90;;;1.20;;
78402;SDS011;67687;43.508;1.504;2024-02-14T14:29:23;3.42;;;1.00;;
78402;SDS011;67687;43.508;1.504;2024-02-14T14:31:50;3.07;;;0.70;;
78402;SDS011;67687;43.508;1.504;2024-02-14T14:34:16;3.95;;;1.00;;
78402;SDS011;67687;43.508;1.504;2024-02-14T14:36:44;3.08;;;0.90;;
78402;SDS011;67687;43.508;1.504;2024-02-14T14:39:11;2.47;;;0.77;;
78402;SDS011;67687;43.508;1.504;2024-02-14T14:41:39;3.10;;;1.00;;
78402;SDS011;67687;43.508;1.504;2024-02-14T14:44:07;2.60;;;0.90;;
78402;SDS011;67687;43.508;1.504;2024-02-14T14:46:34;4.65;;;0.95;;